createdAt,value
2023-02-18T00:01:43.054Z,8.56
2023-02-18T00:04:11.260Z,8.94
2023-02-18T00:06:40.909Z,8.77
2023-02-18T00:09:09.432Z,8.83
2023-02-18T00:11:39.087Z,8.88
2023-02-18T00:14:12.721Z,8.81
2023-02-18T00:16:41.817Z,8.79
2023-02-18T00:19:15.673Z,8.82
2023-02-18T00:21:45.790Z,8.85
2023-02-18T00:24:16.501Z,8.85
2023-02-18T00:26:45.772Z,8.92
2023-02-18T00:29:14.204Z,8.86
2023-02-18T00:31:43.560Z,8.45
2023-02-18T00:34:13.051Z,8.94
2023-02-18T00:36:41.607Z,8.89
2023-02-18T00:39:13.137Z,8.81
2023-02-18T00:41:43.013Z,8.92
2023-02-18T00:44:12.113Z,8.96
2023-02-18T00:46:41.150Z,8.93
2023-02-18T00:49:10.562Z,8.88
2023-02-18T00:51:38.816Z,8.95
2023-02-18T00:54:07.377Z,8.94
2023-02-18T00:56:37.111Z,9.01
2023-02-18T00:59:05.401Z,9.10
2023-02-18T01:01:37.880Z,9.00
2023-02-18T01:04:10.225Z,9.01
2023-02-18T01:06:38.835Z,9.11
2023-02-18T01:09:08.542Z,9.09
2023-02-18T01:11:38.816Z,9.12
2023-02-18T01:14:07.099Z,9.55
2023-02-18T01:16:35.347Z,9.14
2023-02-18T01:19:03.651Z,9.02
2023-02-18T01:21:31.939Z,9.09
2023-02-18T01:24:00.428Z,9.07
2023-02-18T01:26:28.702Z,9.14
2023-02-18T01:28:58.270Z,9.05
2023-02-18T01:31:26.566Z,9.07
2023-02-18T01:33:54.848Z,9.02
2023-02-18T01:36:23.133Z,9.01
2023-02-18T01:38:51.401Z,8.57
2023-02-18T01:41:20.542Z,8.88
2023-02-18T01:43:50.026Z,8.93
2023-02-18T01:46:22.322Z,8.89
2023-02-18T01:48:54.909Z,8.67
2023-02-18T01:51:27.587Z,8.67
2023-02-18T01:54:00.261Z,8.65
2023-02-18T01:56:58.564Z,8.78
2023-02-18T01:59:30.589Z,8.57
2023-02-18T02:02:00.336Z,8.61
2023-02-18T02:04:31.444Z,8.68
2023-02-18T02:06:59.716Z,8.59
2023-02-18T02:09:32.415Z,8.58
2023-02-18T02:12:28.517Z,8.44
2023-02-18T02:15:20.566Z,8.55
2023-02-18T02:18:19.459Z,8.58
2023-02-18T02:21:42.827Z,8.57
2023-02-18T02:24:38.166Z,8.55
2023-02-18T02:27:24.736Z,8.57
2023-02-18T02:30:32.551Z,8.70
2023-02-18T02:33:38.559Z,8.64
2023-02-18T02:36:15.132Z,8.70
2023-02-18T02:38:56.536Z,8.81
2023-02-18T02:41:40.400Z,8.87
2023-02-18T02:44:20.502Z,8.81
2023-02-18T02:46:53.036Z,8.54
2023-02-18T02:49:35.137Z,8.92
2023-02-18T02:52:10.996Z,8.81
2023-02-18T02:54:39.547Z,8.86
2023-02-18T02:57:46.936Z,9.01
2023-02-18T03:00:24.455Z,9.08
2023-02-18T03:03:38.174Z,9.17
2023-02-18T03:06:39.685Z,9.16
2023-02-18T03:09:18.054Z,9.23
2023-02-18T03:11:55.753Z,9.20
2023-02-18T03:14:31.161Z,9.21
2023-02-18T03:17:04.501Z,9.15
2023-02-18T03:19:37.864Z,9.20
2023-02-18T03:22:10.060Z,9.20
2023-02-18T03:24:44.124Z,9.20
2023-02-18T03:27:21.460Z,9.10
2023-02-18T03:29:57.400Z,9.14
2023-02-18T03:32:27.247Z,9.26
2023-02-18T03:34:59.836Z,9.19
2023-02-18T03:37:28.422Z,9.20
2023-02-18T03:40:02.214Z,9.30
2023-02-18T03:42:31.098Z,9.17
2023-02-18T03:44:59.930Z,9.24
2023-02-18T03:47:28.879Z,8.32
2023-02-18T03:49:57.559Z,9.17
2023-02-18T03:52:26.806Z,9.17
2023-02-18T03:54:55.031Z,9.26
2023-02-18T03:57:24.585Z,9.22
2023-02-18T03:59:52.760Z,9.18
2023-02-18T04:02:20.988Z,9.23
2023-02-18T04:04:49.209Z,9.20
2023-02-18T04:07:17.452Z,9.33
2023-02-18T04:09:45.717Z,9.21
2023-02-18T04:12:13.938Z,9.22
2023-02-18T04:14:43.802Z,9.15
2023-02-18T04:17:12.705Z,9.14
2023-02-18T04:19:40.941Z,9.14
2023-02-18T04:22:09.235Z,9.21
2023-02-18T04:24:37.461Z,9.29
2023-02-18T04:27:05.724Z,9.32
2023-02-18T04:29:34.105Z,9.28
2023-02-18T04:32:03.762Z,9.34
2023-02-18T04:34:32.024Z,9.29
2023-02-18T04:37:00.256Z,9.40
2023-02-18T04:39:28.456Z,9.26
2023-02-18T04:41:56.720Z,9.39
2023-02-18T04:44:24.930Z,9.36
2023-02-18T04:46:53.149Z,9.35
2023-02-18T04:49:22.688Z,9.24
2023-02-18T04:51:50.907Z,9.21
2023-02-18T04:54:19.113Z,9.29
2023-02-18T04:56:47.418Z,9.18
2023-02-18T04:59:15.936Z,9.29
2023-02-18T05:01:44.234Z,9.31
2023-02-18T05:04:13.823Z,9.36
2023-02-18T05:09:41.674Z,9.28
2023-02-18T05:12:10.264Z,9.28
2023-02-18T05:14:38.465Z,9.26
2023-02-18T05:17:06.724Z,9.33
2023-02-18T05:19:34.990Z,9.27
2023-02-18T05:22:04.647Z,9.29
2023-02-18T05:24:32.876Z,9.31
2023-02-18T05:27:01.071Z,9.23
2023-02-18T05:29:29.274Z,9.26
2023-02-18T05:31:57.576Z,9.11
2023-02-18T05:34:25.857Z,9.36
2023-02-18T05:36:54.259Z,9.16
2023-02-18T05:39:23.796Z,9.27
2023-02-18T05:41:52.011Z,9.16
2023-02-18T05:44:32.580Z,9.19
2023-02-18T05:47:03.186Z,9.01
2023-02-18T05:49:33.261Z,9.15
2023-02-18T05:52:02.091Z,9.05
2023-02-18T05:54:32.141Z,9.08
2023-02-18T05:57:00.340Z,8.95
2023-02-18T05:59:28.863Z,8.97
2023-02-18T06:01:57.620Z,9.02
2023-02-18T06:04:26.109Z,9.06
2023-02-18T06:06:54.783Z,9.12
2023-02-18T06:09:23.440Z,9.09
2023-02-18T06:11:53.342Z,9.12
2023-02-18T06:14:22.538Z,9.12
2023-02-18T06:16:50.784Z,9.08
2023-02-18T06:19:19.036Z,9.02
2023-02-18T06:21:47.447Z,9.07
2023-02-18T06:24:15.694Z,9.10
2023-02-18T06:26:44.295Z,9.18
2023-02-18T06:29:13.903Z,8.99
2023-02-18T06:31:42.189Z,9.05
2023-02-18T06:34:10.493Z,9.11
2023-02-18T06:36:38.794Z,9.04
2023-02-18T06:39:08.887Z,9.04
2023-02-18T06:41:37.114Z,9.08
2023-02-18T06:44:05.959Z,9.02
2023-02-18T06:46:35.923Z,9.03
2023-02-18T06:49:04.390Z,9.05
2023-02-18T06:51:32.634Z,8.98
2023-02-18T06:54:00.821Z,8.85
2023-02-18T06:56:30.922Z,8.92
2023-02-18T06:58:59.272Z,8.94
2023-02-18T07:01:27.693Z,8.97
2023-02-18T07:03:59.933Z,8.94
2023-02-18T07:06:33.832Z,8.89
2023-02-18T07:09:02.046Z,9.06
2023-02-18T07:11:30.249Z,8.87
2023-02-18T07:13:58.493Z,8.93
2023-02-18T07:16:26.920Z,8.95
2023-02-18T07:18:56.493Z,8.92
2023-02-18T07:21:24.735Z,8.88
2023-02-18T07:23:52.952Z,8.96
2023-02-18T07:26:21.176Z,9.03
2023-02-18T07:28:49.382Z,8.97
2023-02-18T07:31:17.780Z,9.06
2023-02-18T07:33:46.125Z,8.97
2023-02-18T07:36:15.684Z,9.14
2023-02-18T07:38:43.957Z,8.98
2023-02-18T07:41:23.953Z,9.09
2023-02-18T07:43:52.301Z,9.07
2023-02-18T07:46:21.118Z,8.86
2023-02-18T07:48:49.344Z,9.10
2023-02-18T07:51:18.917Z,9.27
2023-02-18T07:53:47.180Z,9.16
2023-02-18T07:56:15.660Z,9.24
2023-02-18T07:58:43.920Z,9.25
2023-02-18T08:01:16.053Z,9.30
2023-02-18T08:03:44.530Z,9.22
2023-02-18T08:06:26.661Z,9.12
2023-02-18T08:08:55.292Z,9.23
2023-02-18T08:11:27.116Z,9.33
2023-02-18T08:13:55.333Z,9.34
2023-02-18T08:16:24.352Z,9.28
2023-02-18T08:18:53.355Z,9.50
2023-02-18T08:21:24.895Z,9.38
2023-02-18T08:23:53.726Z,9.50
2023-02-18T08:26:22.490Z,9.50
2023-02-18T08:28:50.925Z,9.56
2023-02-18T08:31:22.650Z,9.70
2023-02-18T08:33:51.033Z,9.64
2023-02-18T08:36:19.730Z,9.76
2023-02-18T08:38:49.996Z,9.71
2023-02-18T08:41:19.777Z,9.48
2023-02-18T08:43:48.490Z,9.76
2023-02-18T08:46:24.972Z,9.75
2023-02-18T08:48:55.478Z,9.83
2023-02-18T08:51:26.151Z,9.86
2023-02-18T08:53:55.732Z,9.89
2023-02-18T08:56:30.896Z,9.84
2023-02-18T08:58:59.941Z,9.79
2023-02-18T09:01:28.250Z,9.93
2023-02-18T09:03:57.668Z,9.95
2023-02-18T09:06:26.820Z,9.51
2023-02-18T09:08:56.791Z,9.98
2023-02-18T09:11:25.083Z,9.94
2023-02-18T09:13:53.296Z,10.18
2023-02-18T09:16:21.501Z,10.29
2023-02-18T09:18:50.534Z,10.38
2023-02-18T09:21:20.810Z,9.37
2023-02-18T09:23:49.281Z,10.50
2023-02-18T09:26:23.155Z,10.54
2023-02-18T09:28:52.598Z,10.67
2023-02-18T09:31:23.067Z,10.89
2023-02-18T09:33:54.776Z,10.74
2023-02-18T09:36:23.240Z,10.19
2023-02-18T09:38:51.737Z,10.73
2023-02-18T09:41:33.416Z,10.74
2023-02-18T09:44:05.829Z,10.86
2023-02-18T09:46:38.852Z,10.91
2023-02-18T09:49:15.236Z,10.72
2023-02-18T09:51:46.247Z,10.96
2023-02-18T09:54:18.435Z,11.03
2023-02-18T09:56:54.553Z,11.07
2023-02-18T09:59:26.266Z,11.06
2023-02-18T10:01:57.190Z,11.01
2023-02-18T10:04:38.726Z,11.08
2023-02-18T10:07:07.292Z,11.07
2023-02-18T10:09:42.134Z,11.14
2023-02-18T10:12:17.841Z,11.02
2023-02-18T10:14:51.375Z,11.13
2023-02-18T10:17:21.665Z,10.34
2023-02-18T10:19:51.580Z,10.69
2023-02-18T10:22:22.084Z,11.05
2023-02-18T10:24:53.838Z,11.09
2023-02-18T10:27:27.336Z,11.11
2023-02-18T10:29:56.849Z,11.05
2023-02-18T10:32:28.972Z,11.18
2023-02-18T10:35:04.263Z,11.33
2023-02-18T10:37:56.055Z,11.54
2023-02-18T10:40:33.015Z,11.59
2023-02-18T10:43:13.409Z,11.62
2023-02-18T10:45:52.538Z,11.56
2023-02-18T10:48:52.648Z,11.59
2023-02-18T10:51:24.311Z,11.76
2023-02-18T10:53:54.581Z,11.55
2023-02-18T10:56:36.806Z,11.73
2023-02-18T10:59:14.061Z,11.59
2023-02-18T11:01:44.059Z,11.52
2023-02-18T11:04:20.132Z,11.52
2023-02-18T11:06:50.889Z,11.54
2023-02-18T11:09:33.230Z,11.44
2023-02-18T11:12:08.653Z,11.47
2023-02-18T11:14:44.064Z,11.41
2023-02-18T11:17:21.931Z,11.50
2023-02-18T11:19:56.381Z,11.47
2023-02-18T11:22:27.005Z,11.58
2023-02-18T11:24:58.090Z,11.55
2023-02-18T11:27:33.160Z,11.46
2023-02-18T11:30:07.119Z,11.50
2023-02-18T11:32:37.414Z,11.49
2023-02-18T11:35:07.263Z,11.44
2023-02-18T11:37:37.048Z,11.49
2023-02-18T11:40:07.599Z,11.43
2023-02-18T11:42:35.821Z,11.39
2023-02-18T11:45:05.897Z,11.22
2023-02-18T11:47:36.433Z,11.30
2023-02-18T11:50:23.761Z,11.32
2023-02-18T11:52:53.994Z,11.20
2023-02-18T11:55:27.190Z,11.17
2023-02-18T11:58:00.028Z,11.19
2023-02-18T12:00:41.651Z,10.99
2023-02-18T12:03:29.074Z,11.13
2023-02-18T12:06:00.478Z,11.07
2023-02-18T12:08:32.511Z,11.10
2023-02-18T12:11:05.945Z,10.87
2023-02-18T12:13:38.314Z,10.87
2023-02-18T12:16:21.070Z,10.88
2023-02-18T12:19:07.027Z,10.82
2023-02-18T12:21:50.137Z,10.81
2023-02-18T12:24:40.449Z,9.13
2023-02-18T12:27:18.329Z,10.86
2023-02-18T12:30:19.958Z,10.99
2023-02-18T12:32:57.366Z,10.89
2023-02-18T12:35:50.626Z,10.90
2023-02-18T12:38:51.332Z,10.92
2023-02-18T12:41:33.279Z,10.88
2023-02-18T12:44:15.267Z,10.81
2023-02-18T12:47:03.899Z,10.81
2023-02-18T12:50:25.100Z,10.85
2023-02-18T12:53:13.601Z,10.86
2023-02-18T12:56:04.140Z,10.89
2023-02-18T12:59:17.202Z,10.95
2023-02-18T13:01:59.676Z,10.97
2023-02-18T13:04:55.440Z,10.81
2023-02-18T13:07:40.185Z,10.93
2023-02-18T13:10:41.170Z,10.73
2023-02-18T13:13:14.480Z,10.64
2023-02-18T13:15:47.863Z,10.72
2023-02-18T13:18:22.086Z,10.64
2023-02-18T13:20:56.572Z,10.80
2023-02-18T13:23:30.696Z,10.15
2023-02-18T13:26:03.492Z,11.13
2023-02-18T13:28:38.669Z,11.13
2023-02-18T13:31:23.861Z,10.90
2023-02-18T13:33:59.682Z,10.98
2023-02-18T13:36:46.030Z,11.03
2023-02-18T13:39:19.987Z,11.28
2023-02-18T13:41:50.840Z,11.02
2023-02-18T13:45:16.967Z,10.93
2023-02-18T13:47:49.726Z,10.88
2023-02-18T13:50:28.601Z,10.98
2023-02-18T13:53:24.047Z,10.65
2023-02-18T13:55:57.006Z,10.82
2023-02-18T13:58:33.548Z,10.78
2023-02-18T14:01:06.639Z,10.72
2023-02-18T14:03:57.559Z,10.67
2023-02-18T14:06:30.910Z,10.79
2023-02-18T14:09:40.091Z,10.70
2023-02-18T14:12:26.904Z,10.76
2023-02-18T14:14:55.367Z,10.70
2023-02-18T14:17:40.931Z,10.76
2023-02-18T14:20:46.851Z,10.74
2023-02-18T14:23:58.253Z,10.73
2023-02-18T14:26:33.215Z,10.81
2023-02-18T14:29:07.946Z,10.82
2023-02-18T14:31:45.330Z,10.57
2023-02-18T14:34:54.296Z,10.77
2023-02-18T14:37:58.509Z,10.77
2023-02-18T14:40:54.612Z,10.60
2023-02-18T14:43:55.425Z,10.72
2023-02-18T14:46:37.276Z,10.75
2023-02-18T14:49:30.483Z,10.58
2023-02-18T14:52:00.294Z,10.74
2023-02-18T14:54:32.324Z,10.67
2023-02-18T14:57:06.537Z,10.63
2023-02-18T14:59:42.730Z,10.27
2023-02-18T15:02:22.578Z,10.74
2023-02-18T15:04:52.366Z,10.69
2023-02-18T15:07:23.804Z,10.76
2023-02-18T15:09:55.757Z,10.74
2023-02-18T15:12:26.431Z,10.72
2023-02-18T15:14:59.822Z,10.72
2023-02-18T15:17:28.535Z,10.78
2023-02-18T15:20:00.052Z,10.56
2023-02-18T15:22:34.100Z,10.72
2023-02-18T15:25:03.104Z,10.72
2023-02-18T15:27:34.291Z,10.68
2023-02-18T15:30:21.244Z,10.59
2023-02-18T15:32:54.620Z,10.61
2023-02-18T15:35:29.257Z,10.65
2023-02-18T15:37:59.615Z,10.75
2023-02-18T15:40:32.049Z,10.74
2023-02-18T15:43:03.570Z,10.42
2023-02-18T15:45:35.689Z,10.77
2023-02-18T15:48:06.464Z,10.62
2023-02-18T15:50:38.496Z,10.67
2023-02-18T15:53:11.040Z,10.64
2023-02-18T15:55:41.419Z,10.69
2023-02-18T15:58:17.524Z,10.52
2023-02-18T16:00:52.952Z,10.48
2023-02-18T16:03:24.417Z,10.41
2023-02-18T16:06:09.963Z,10.36
2023-02-18T16:08:40.941Z,10.45
2023-02-18T16:11:13.263Z,10.35
2023-02-18T16:13:48.295Z,10.41
2023-02-18T16:16:26.356Z,9.56
2023-02-18T16:18:54.877Z,10.25
2023-02-18T16:21:34.469Z,10.15
2023-02-18T16:24:06.260Z,10.03
2023-02-18T16:26:45.938Z,9.67
2023-02-18T16:29:16.867Z,10.06
2023-02-18T16:31:46.464Z,10.06
2023-02-18T16:34:14.722Z,8.94
2023-02-18T16:37:03.290Z,9.88
2023-02-18T16:39:35.570Z,9.76
2023-02-18T16:42:04.234Z,9.84
2023-02-18T16:44:33.775Z,9.82
2023-02-18T16:47:03.537Z,9.77
2023-02-18T16:49:31.838Z,9.76
2023-02-18T16:52:01.269Z,9.38
2023-02-18T16:54:29.508Z,9.76
2023-02-18T16:56:57.702Z,9.83
2023-02-18T16:59:26.133Z,9.61
2023-02-18T17:01:56.052Z,9.78
2023-02-18T17:04:26.556Z,9.69
2023-02-18T17:06:54.815Z,9.75
2023-02-18T17:09:27.089Z,9.52
2023-02-18T17:11:57.196Z,9.38
2023-02-18T17:14:25.456Z,9.55
2023-02-18T17:16:55.863Z,9.48
2023-02-18T17:19:25.508Z,9.29
2023-02-18T17:21:53.730Z,9.14
2023-02-18T17:24:22.051Z,9.10
2023-02-18T17:26:50.249Z,8.98
2023-02-18T17:29:19.619Z,8.90
2023-02-18T17:31:48.633Z,8.80
2023-02-18T17:34:23.025Z,8.63
2023-02-18T17:36:52.689Z,8.62
2023-02-18T17:39:22.670Z,8.54
2023-02-18T17:41:51.353Z,8.62
2023-02-18T17:44:22.302Z,8.38
2023-02-18T17:46:50.989Z,8.35
2023-02-18T17:49:19.257Z,8.33
2023-02-18T17:51:47.515Z,8.18
2023-02-18T17:54:22.664Z,8.16
2023-02-18T17:56:51.123Z,8.20
2023-02-18T17:59:19.357Z,8.71
2023-02-18T18:01:48.058Z,8.13
2023-02-18T18:04:18.304Z,8.13
2023-02-18T18:06:47.072Z,8.08
2023-02-18T18:09:15.349Z,8.04
2023-02-18T18:11:45.008Z,7.96
2023-02-18T18:14:15.114Z,7.90
2023-02-18T18:16:43.401Z,7.84
2023-02-18T18:19:11.636Z,7.28
2023-02-18T18:21:40.047Z,7.85
2023-02-18T18:24:10.362Z,7.82
2023-02-18T18:26:38.549Z,7.70
2023-02-18T18:29:08.356Z,7.65
2023-02-18T18:31:37.519Z,7.57
2023-02-18T18:34:05.838Z,7.73
2023-02-18T18:36:34.062Z,7.70
2023-02-18T18:39:02.810Z,7.77
2023-02-18T18:41:31.191Z,7.71
2023-02-18T18:43:59.381Z,7.60
2023-02-18T18:46:33.555Z,7.73
2023-02-18T18:49:01.741Z,7.56
2023-02-18T18:51:32.536Z,7.68
2023-02-18T18:54:00.815Z,7.67
2023-02-18T18:56:29.071Z,7.63
2023-02-18T18:58:57.375Z,7.69
2023-02-18T19:01:27.567Z,7.70
2023-02-18T19:04:07.119Z,7.58
2023-02-18T19:06:35.632Z,7.45
2023-02-18T19:09:03.825Z,7.66
2023-02-18T19:11:32.094Z,7.65
2023-02-18T19:14:00.316Z,7.49
2023-02-18T19:16:35.530Z,7.52
2023-02-18T19:19:03.733Z,7.55
2023-02-18T19:21:33.525Z,7.57
2023-02-18T19:24:01.741Z,7.59
2023-02-18T19:26:29.979Z,7.33
2023-02-18T19:28:58.237Z,7.54
2023-02-18T19:31:26.909Z,7.64
2023-02-18T19:33:55.602Z,7.57
2023-02-18T19:36:23.856Z,7.66
2023-02-18T19:38:53.454Z,7.59
2023-02-18T19:41:21.670Z,7.46
2023-02-18T19:43:49.873Z,7.56
2023-02-18T19:46:19.885Z,7.55
2023-02-18T19:48:50.649Z,6.99
2023-02-18T19:51:19.119Z,7.58
2023-02-18T19:53:47.443Z,7.35
2023-02-18T19:56:17.041Z,7.59
2023-02-18T19:58:45.406Z,7.69
2023-02-18T20:01:14.430Z,7.57
2023-02-18T20:03:43.043Z,7.60
2023-02-18T20:06:16.999Z,7.56
2023-02-18T20:08:45.471Z,7.52
2023-02-18T20:11:13.944Z,7.66
2023-02-18T20:13:44.061Z,7.53
2023-02-18T20:16:12.749Z,7.29
2023-02-18T20:18:41.056Z,7.46
2023-02-18T20:21:12.587Z,7.53
2023-02-18T20:23:40.971Z,7.40
2023-02-18T20:26:09.532Z,7.56
2023-02-18T20:28:37.766Z,7.51
2023-02-18T20:31:09.891Z,7.52
2023-02-18T20:33:38.856Z,7.47
2023-02-18T20:36:08.560Z,7.37
2023-02-18T20:38:38.306Z,7.53
2023-02-18T20:41:07.578Z,7.53
2023-02-18T20:43:36.011Z,7.52
2023-02-18T20:46:07.886Z,7.52
2023-02-18T20:48:36.993Z,7.52
2023-02-18T20:51:06.302Z,7.40
2023-02-18T20:53:35.795Z,7.45
2023-02-18T20:56:04.477Z,7.43
2023-02-18T20:58:33.474Z,6.87
2023-02-18T21:01:03.938Z,6.68
2023-02-18T21:03:34.948Z,7.56
2023-02-18T21:06:06.447Z,7.45
2023-02-18T21:08:37.952Z,7.43
2023-02-18T21:11:11.239Z,7.47
2023-02-18T21:13:39.890Z,6.96
2023-02-18T21:16:09.842Z,7.42
2023-02-18T21:18:39.685Z,7.41
2023-02-18T21:21:10.298Z,7.44
2023-02-18T21:23:39.695Z,7.39
2023-02-18T21:26:11.154Z,7.20
2023-02-18T21:28:40.207Z,7.37
2023-02-18T21:31:17.456Z,7.32
2023-02-18T21:33:47.445Z,7.35
2023-02-18T21:36:16.466Z,7.35
2023-02-18T21:38:45.486Z,7.36
2023-02-18T21:41:13.887Z,7.36
2023-02-18T21:43:45.332Z,7.16
2023-02-18T21:46:17.500Z,7.24
2023-02-18T21:49:04.938Z,7.16
2023-02-18T21:51:54.911Z,7.16
2023-02-18T21:54:26.090Z,7.18
2023-02-18T21:56:55.757Z,7.23
2023-02-18T21:59:27.156Z,7.10
2023-02-18T22:01:56.610Z,7.21
2023-02-18T22:04:26.587Z,7.12
2023-02-18T22:06:54.836Z,7.06
2023-02-18T22:09:23.423Z,7.13
2023-02-18T22:11:52.005Z,7.14
2023-02-18T22:14:20.240Z,7.13
2023-02-18T22:16:48.596Z,7.13
2023-02-18T22:19:17.078Z,7.16
2023-02-18T22:21:47.124Z,7.21
2023-02-18T22:24:16.547Z,7.12
2023-02-18T22:26:46.707Z,7.00
2023-02-18T22:29:16.784Z,7.00
2023-02-18T22:31:45.519Z,6.66
2023-02-18T22:34:14.329Z,7.21
2023-02-18T22:36:42.910Z,7.11
2023-02-18T22:39:15.301Z,7.13
2023-02-18T22:41:44.426Z,7.13
2023-02-18T22:44:16.245Z,7.19
2023-02-18T22:46:45.220Z,7.36
2023-02-18T22:49:14.100Z,7.19
2023-02-18T22:51:44.681Z,7.09
2023-02-18T22:54:16.905Z,6.99
2023-02-18T22:56:46.815Z,7.04
2023-02-18T22:59:19.162Z,6.92
2023-02-18T23:01:50.500Z,7.04
2023-02-18T23:04:21.820Z,7.00
2023-02-18T23:06:51.391Z,7.03
2023-02-18T23:09:24.819Z,7.08
2023-02-18T23:11:56.245Z,6.97
2023-02-18T23:14:25.301Z,6.99
2023-02-18T23:17:17.736Z,7.04
2023-02-18T23:19:48.034Z,5.12
2023-02-18T23:22:19.090Z,6.94
2023-02-18T23:24:49.570Z,6.93
2023-02-18T23:27:18.702Z,6.98
2023-02-18T23:29:47.339Z,6.98
2023-02-18T23:32:15.963Z,6.99
2023-02-18T23:34:44.245Z,6.96
2023-02-18T23:37:13.198Z,6.93
2023-02-18T23:39:41.587Z,6.93
2023-02-18T23:42:11.155Z,6.87
2023-02-18T23:44:39.349Z,6.93
2023-02-18T23:47:08.487Z,6.83
2023-02-18T23:49:36.711Z,6.96
2023-02-18T23:52:05.904Z,6.88
2023-02-18T23:54:34.237Z,6.99
2023-02-18T23:57:02.422Z,6.96
2023-02-18T23:59:31.948Z,6.96
